createdAt,value
2022-08-03T00:02:21.111Z,16.00
2022-08-03T00:04:50.522Z,16.00
2022-08-03T00:07:21.328Z,15.90
2022-08-03T00:09:50.317Z,15.90
2022-08-03T00:12:19.118Z,15.90
2022-08-03T00:14:47.397Z,15.80
2022-08-03T00:17:16.170Z,15.80
2022-08-03T00:19:47.417Z,15.70
2022-08-03T00:22:15.889Z,15.70
2022-08-03T00:24:45.868Z,15.70
2022-08-03T00:27:16.618Z,15.70
2022-08-03T00:29:59.351Z,15.70
2022-08-03T00:32:34.205Z,15.70
2022-08-03T00:35:08.048Z,15.70
2022-08-03T00:37:41.247Z,15.70
2022-08-03T00:40:14.804Z,15.70
2022-08-03T00:42:55.344Z,15.70
2022-08-03T00:45:26.329Z,15.70
2022-08-03T00:47:58.708Z,15.70
2022-08-03T00:50:33.145Z,15.60
2022-08-03T00:53:03.323Z,15.60
2022-08-03T00:55:33.264Z,15.50
2022-08-03T00:58:06.580Z,15.40
2022-08-03T01:00:39.803Z,15.40
2022-08-03T01:03:10.129Z,15.30
2022-08-03T01:05:51.241Z,15.10
2022-08-03T01:08:29.861Z,15.10
2022-08-03T01:11:11.373Z,15.20
2022-08-03T01:14:01.898Z,15.20
2022-08-03T01:16:49.657Z,15.20
2022-08-03T01:19:47.752Z,15.20
2022-08-03T01:23:01.788Z,15.20
2022-08-03T01:26:00.914Z,15.20
2022-08-03T01:29:04.791Z,15.20
2022-08-03T01:32:53.391Z,15.10
2022-08-03T01:34:37.765Z,15.10
2022-08-03T01:37:10.336Z,15.10
2022-08-03T01:39:42.448Z,15.10
2022-08-03T01:42:15.715Z,15.10
2022-08-03T01:44:48.943Z,15.10
2022-08-03T01:47:23.689Z,15.00
2022-08-03T01:49:53.795Z,14.90
2022-08-03T01:52:24.013Z,14.90
2022-08-03T01:54:54.835Z,14.80
2022-08-03T01:57:25.114Z,14.80
2022-08-03T01:59:57.039Z,14.70
2022-08-03T02:02:34.053Z,14.80
2022-08-03T02:05:10.706Z,14.90
2022-08-03T02:07:41.843Z,14.90
2022-08-03T02:10:14.203Z,15.10
2022-08-03T02:12:46.331Z,15.10
2022-08-03T02:15:19.505Z,15.00
2022-08-03T02:17:50.481Z,15.10
2022-08-03T02:20:20.463Z,15.10
2022-08-03T02:22:48.999Z,15.10
2022-08-03T02:25:18.136Z,15.10
2022-08-03T02:27:56.103Z,14.90
2022-08-03T02:30:32.281Z,14.80
2022-08-03T02:33:03.203Z,14.70
2022-08-03T02:35:34.053Z,14.70
2022-08-03T02:38:06.760Z,14.70
2022-08-03T02:40:35.094Z,14.70
2022-08-03T02:43:10.123Z,14.70
2022-08-03T02:45:45.861Z,14.60
2022-08-03T02:48:22.956Z,14.50
2022-08-03T02:50:55.855Z,14.50
2022-08-03T02:53:26.386Z,14.40
2022-08-03T02:55:58.255Z,14.40
2022-08-03T02:58:27.291Z,14.30
2022-08-03T03:00:57.299Z,14.40
2022-08-03T03:03:28.284Z,14.40
2022-08-03T03:06:00.994Z,14.30
2022-08-03T03:08:35.609Z,14.20
2022-08-03T03:11:09.865Z,14.20
2022-08-03T03:13:39.269Z,14.00
2022-08-03T03:16:09.827Z,13.90
2022-08-03T03:18:41.009Z,13.80
2022-08-03T03:21:11.398Z,13.70
2022-08-03T03:23:42.531Z,13.80
2022-08-03T03:26:16.325Z,13.80
2022-08-03T03:28:46.717Z,13.90
2022-08-03T03:31:15.017Z,14.00
2022-08-03T03:33:45.320Z,14.00
2022-08-03T03:36:13.657Z,14.00
2022-08-03T03:38:41.857Z,14.00
2022-08-03T03:41:11.563Z,13.90
2022-08-03T03:43:39.992Z,13.90
2022-08-03T03:46:08.508Z,13.90
2022-08-03T03:48:36.771Z,13.90
2022-08-03T03:51:08.097Z,13.90
2022-08-03T03:53:36.406Z,13.90
2022-08-03T03:56:05.485Z,13.90
2022-08-03T03:58:37.121Z,13.90
2022-08-03T04:01:05.371Z,13.90
2022-08-03T04:03:33.830Z,13.80
2022-08-03T04:06:19.500Z,13.80
2022-08-03T04:09:06.661Z,13.70
2022-08-03T04:11:42.876Z,13.80
2022-08-03T04:14:16.129Z,13.80
2022-08-03T04:16:50.430Z,13.70
2022-08-03T04:19:25.834Z,13.80
2022-08-03T04:22:01.252Z,13.90
2022-08-03T04:24:36.367Z,14.00
2022-08-03T04:27:10.695Z,14.00
2022-08-03T04:29:48.178Z,14.10
2022-08-03T04:32:18.696Z,14.10
2022-08-03T04:34:47.844Z,14.10
2022-08-03T04:37:27.472Z,14.10
2022-08-03T04:40:02.856Z,14.20
2022-08-03T04:42:35.426Z,14.20
2022-08-03T04:45:06.303Z,14.30
2022-08-03T04:47:38.359Z,14.40
2022-08-03T04:50:13.570Z,14.40
2022-08-03T04:52:44.749Z,14.50
2022-08-03T04:55:14.392Z,14.60
2022-08-03T04:57:42.530Z,14.60
2022-08-03T05:00:12.500Z,14.70
2022-08-03T05:02:40.640Z,14.70
2022-08-03T05:05:09.903Z,14.80
2022-08-03T05:07:40.779Z,14.90
2022-08-03T05:10:15.991Z,15.10
2022-08-03T05:12:47.395Z,15.10
2022-08-03T05:15:16.277Z,15.30
2022-08-03T05:17:44.616Z,15.50
2022-08-03T05:20:13.629Z,15.60
2022-08-03T05:22:44.737Z,15.80
2022-08-03T05:25:19.093Z,16.60
2022-08-03T05:27:49.967Z,17.80
2022-08-03T05:30:30.467Z,19.10
2022-08-03T05:33:03.996Z,20.30
2022-08-03T05:36:01.669Z,21.40
2022-08-03T05:38:24.003Z,22.20
2022-08-03T05:41:23.256Z,23.30
2022-08-03T05:43:48.052Z,23.80
2022-08-03T05:46:16.540Z,24.00
2022-08-03T05:48:44.928Z,24.20
2022-08-03T05:51:13.618Z,24.90
2022-08-03T05:53:42.719Z,25.40
2022-08-03T05:56:14.393Z,26.30
2022-08-03T05:58:45.459Z,27.10
2022-08-03T06:01:15.281Z,27.60
2022-08-03T06:03:43.538Z,27.80
2022-08-03T06:06:12.159Z,27.60
2022-08-03T06:08:40.883Z,27.50
2022-08-03T06:11:09.831Z,27.90
2022-08-03T06:13:38.153Z,28.20
2022-08-03T06:16:07.190Z,28.70
2022-08-03T06:18:37.056Z,28.80
2022-08-03T06:21:14.664Z,28.80
2022-08-03T06:23:54.276Z,28.80
2022-08-03T06:26:26.124Z,29.10
2022-08-03T06:28:55.048Z,29.70
2022-08-03T06:31:32.668Z,30.10
2022-08-03T06:34:34.981Z,30.10
2022-08-03T06:36:52.966Z,30.20
2022-08-03T06:39:23.287Z,30.90
2022-08-03T06:41:53.503Z,30.70
2022-08-03T06:44:21.935Z,30.30
2022-08-03T06:46:51.331Z,30.60
2022-08-03T06:49:20.946Z,31.50
2022-08-03T06:52:04.505Z,31.70
2022-08-03T06:54:35.985Z,32.60
2022-08-03T06:57:04.874Z,33.00
2022-08-03T07:00:09.402Z,33.10
2022-08-03T07:02:21.292Z,33.70
2022-08-03T07:04:53.573Z,32.80
2022-08-03T07:07:21.770Z,32.90
2022-08-03T07:09:54.968Z,32.70
2022-08-03T07:12:28.191Z,32.50
2022-08-03T07:15:00.734Z,32.60
2022-08-03T07:17:30.262Z,33.00
2022-08-03T07:20:01.302Z,33.50
2022-08-03T07:22:29.471Z,33.40
2022-08-03T07:24:57.897Z,34.00
2022-08-03T07:27:28.536Z,35.20
2022-08-03T07:29:57.388Z,35.00
2022-08-03T07:32:26.327Z,35.40
2022-08-03T07:34:58.426Z,36.20
2022-08-03T07:37:31.538Z,36.90
2022-08-03T07:40:00.579Z,37.40
2022-08-03T07:42:29.304Z,37.60
2022-08-03T07:44:57.917Z,38.30
2022-08-03T07:47:35.712Z,38.40
2022-08-03T07:50:08.674Z,38.40
2022-08-03T07:52:51.844Z,38.30
2022-08-03T07:55:22.297Z,38.70
2022-08-03T07:58:05.346Z,39.10
2022-08-03T08:00:34.677Z,39.30
2022-08-03T08:03:03.276Z,39.50
2022-08-03T08:05:31.416Z,39.30
2022-08-03T08:08:01.421Z,39.70
2022-08-03T08:10:29.924Z,39.80
2022-08-03T08:12:58.783Z,39.90
2022-08-03T08:15:27.422Z,40.50
2022-08-03T08:17:59.562Z,39.80
2022-08-03T08:20:31.787Z,39.40
2022-08-03T08:23:09.595Z,39.20
2022-08-03T08:25:54.119Z,39.20
2022-08-03T08:31:06.445Z,40.20
2022-08-03T08:34:03.276Z,41.10
2022-08-03T08:36:24.426Z,41.10
2022-08-03T08:38:53.958Z,40.60
2022-08-03T08:41:22.202Z,41.40
2022-08-03T08:43:50.356Z,41.90
2022-08-03T08:46:23.842Z,42.30
2022-08-03T08:48:54.383Z,41.40
2022-08-03T08:51:54.979Z,41.20
2022-08-03T08:54:16.632Z,41.10
2022-08-03T08:56:45.973Z,41.50
2022-08-03T08:59:20.801Z,41.20
2022-08-03T09:01:49.268Z,41.10
2022-08-03T09:04:18.121Z,40.90
2022-08-03T09:07:04.531Z,41.80
2022-08-03T09:10:12.049Z,42.50
2022-08-03T09:12:42.269Z,42.60
2022-08-03T09:15:26.132Z,42.20
2022-08-03T09:17:58.386Z,41.30
2022-08-03T09:20:29.712Z,41.40
2022-08-03T09:23:01.266Z,41.80
2022-08-03T09:25:33.570Z,42.70
2022-08-03T09:28:32.367Z,43.10
2022-08-03T09:31:02.979Z,42.70
2022-08-03T09:33:35.972Z,42.80
2022-08-03T09:36:04.560Z,42.90
2022-08-03T09:38:32.628Z,43.30
2022-08-03T09:41:02.051Z,42.10
2022-08-03T09:43:47.467Z,41.20
2022-08-03T09:46:15.545Z,41.10
2022-08-03T09:48:43.856Z,40.80
2022-08-03T09:51:32.776Z,41.10
2022-08-03T09:54:04.960Z,41.50
2022-08-03T09:56:47.897Z,42.10
2022-08-03T09:59:26.243Z,42.00
2022-08-03T10:01:55.063Z,41.80
2022-08-03T10:04:24.546Z,41.50
2022-08-03T10:07:13.513Z,42.30
2022-08-03T10:10:31.199Z,43.20
2022-08-03T10:12:49.354Z,43.30
2022-08-03T10:16:24.944Z,43.50
2022-08-03T10:18:06.684Z,42.90
2022-08-03T10:20:42.193Z,42.00
2022-08-03T10:23:12.223Z,41.70
2022-08-03T10:25:43.744Z,42.80
2022-08-03T10:28:19.465Z,43.50
2022-08-03T10:30:54.103Z,43.90
2022-08-03T10:33:50.869Z,44.50
2022-08-03T10:36:18.316Z,45.40
2022-08-03T10:38:52.982Z,45.20
2022-08-03T10:41:24.243Z,44.10
2022-08-03T10:44:00.484Z,43.50
2022-08-03T10:46:29.913Z,43.40
2022-08-03T10:48:59.348Z,43.50
2022-08-03T10:51:32.192Z,42.30
2022-08-03T10:54:01.782Z,42.20
2022-08-03T10:56:58.705Z,42.00
2022-08-03T11:00:06.076Z,41.60
2022-08-03T11:03:17.694Z,42.50
2022-08-03T11:05:49.200Z,42.50
2022-08-03T11:08:30.092Z,43.00
2022-08-03T11:11:02.448Z,41.80
2022-08-03T11:13:33.988Z,41.40
2022-08-03T11:16:22.034Z,41.50
2022-08-03T11:19:05.700Z,41.30
2022-08-03T11:22:00.003Z,42.30
2022-08-03T11:25:02.267Z,43.40
2022-08-03T11:27:35.787Z,42.90
2022-08-03T11:30:08.746Z,42.50
2022-08-03T11:33:02.524Z,42.30
2022-08-03T11:35:33.835Z,42.30
2022-08-03T11:38:13.377Z,41.70
2022-08-03T11:40:45.222Z,42.70
2022-08-03T11:43:48.822Z,43.70
2022-08-03T11:46:28.274Z,44.10
2022-08-03T11:49:10.979Z,44.50
2022-08-03T11:51:40.622Z,43.50
2022-08-03T11:54:09.231Z,43.50
2022-08-03T11:56:49.424Z,43.00
2022-08-03T11:59:22.357Z,42.90
2022-08-03T12:01:53.143Z,43.20
2022-08-03T12:04:22.592Z,42.30
2022-08-03T12:07:00.983Z,42.20
2022-08-03T12:09:29.097Z,42.80
2022-08-03T12:12:00.999Z,43.30
2022-08-03T12:14:51.014Z,43.10
2022-08-03T12:17:19.173Z,42.40
2022-08-03T12:19:49.032Z,42.70
2022-08-03T12:22:17.804Z,43.30
2022-08-03T12:24:47.419Z,42.70
2022-08-03T12:27:26.448Z,42.20
2022-08-03T12:29:58.526Z,42.40
2022-08-03T12:32:27.870Z,43.20
2022-08-03T12:35:01.505Z,42.60
2022-08-03T12:37:31.026Z,43.10
2022-08-03T12:40:10.140Z,43.20
2022-08-03T12:42:40.869Z,42.80
2022-08-03T12:45:23.774Z,42.50
2022-08-03T12:47:56.931Z,42.30
2022-08-03T12:50:29.358Z,41.50
2022-08-03T12:52:59.878Z,40.70
2022-08-03T12:55:57.767Z,41.40
2022-08-03T12:58:34.384Z,42.20
2022-08-03T13:01:04.743Z,42.00
2022-08-03T13:03:43.182Z,41.30
2022-08-03T13:06:18.971Z,40.90
2022-08-03T13:08:49.019Z,40.70
2022-08-03T13:11:43.463Z,40.70
2022-08-03T13:14:20.186Z,40.90
2022-08-03T13:16:49.416Z,41.00
2022-08-03T13:19:17.590Z,41.80
2022-08-03T13:22:02.277Z,41.50
2022-08-03T13:24:34.184Z,41.40
2022-08-03T13:28:01.000Z,41.90
2022-08-03T13:29:53.600Z,42.10
2022-08-03T13:32:23.279Z,42.20
2022-08-03T13:34:51.440Z,42.10
2022-08-03T13:37:21.393Z,42.30
2022-08-03T13:39:58.768Z,41.80
2022-08-03T13:42:31.060Z,41.50
2022-08-03T13:44:59.191Z,41.60
2022-08-03T13:47:27.287Z,42.00
2022-08-03T13:50:00.844Z,42.90
2022-08-03T13:52:34.837Z,43.40
2022-08-03T13:55:03.661Z,43.20
2022-08-03T13:58:06.645Z,42.80
2022-08-03T14:00:27.775Z,42.70
2022-08-03T14:03:05.044Z,42.80
2022-08-03T14:05:35.808Z,42.20
2022-08-03T14:08:06.749Z,42.70
2022-08-03T14:10:37.400Z,42.90
2022-08-03T14:13:07.130Z,43.30
2022-08-03T14:15:37.309Z,42.80
2022-08-03T14:18:12.654Z,42.10
2022-08-03T14:20:50.297Z,41.70
2022-08-03T14:23:23.983Z,41.90
2022-08-03T14:25:53.320Z,41.10
2022-08-03T14:28:23.812Z,40.80
2022-08-03T14:30:54.673Z,40.70
2022-08-03T14:33:24.156Z,40.60
2022-08-03T14:35:53.804Z,40.70
2022-08-03T14:38:24.276Z,40.80
2022-08-03T14:40:53.371Z,40.10
2022-08-03T14:43:21.510Z,40.20
2022-08-03T14:45:52.178Z,40.40
2022-08-03T14:50:32.766Z,40.80
2022-08-03T14:51:08.813Z,40.70
2022-08-03T14:53:38.235Z,40.70
2022-08-03T14:56:10.834Z,40.40
2022-08-03T14:58:39.908Z,40.10
2022-08-03T15:02:05.154Z,39.90
2022-08-03T15:03:56.633Z,40.10
2022-08-03T15:06:24.766Z,40.20
2022-08-03T15:09:21.229Z,40.10
2022-08-03T15:11:42.397Z,40.60
2022-08-03T15:14:10.562Z,40.40
2022-08-03T15:16:41.996Z,40.00
2022-08-03T15:20:00.723Z,39.70
2022-08-03T15:21:58.190Z,39.20
2022-08-03T15:24:30.864Z,38.50
2022-08-03T15:26:59.233Z,38.10
2022-08-03T15:30:07.152Z,38.00
2022-08-03T15:32:16.786Z,38.10
2022-08-03T15:34:52.072Z,38.50
2022-08-03T15:37:21.275Z,39.10
2022-08-03T15:39:58.902Z,39.20
2022-08-03T15:42:29.165Z,39.30
2022-08-03T15:44:57.352Z,38.90
2022-08-03T15:47:26.489Z,38.60
2022-08-03T15:49:54.825Z,38.20
2022-08-03T15:52:22.969Z,38.40
2022-08-03T15:54:52.660Z,38.40
2022-08-03T15:57:21.320Z,38.00
2022-08-03T15:59:49.923Z,38.30
2022-08-03T16:02:20.331Z,38.50
2022-08-03T16:04:48.417Z,38.80
2022-08-03T16:07:36.649Z,38.60
2022-08-03T16:10:07.741Z,38.60
2022-08-03T16:12:36.007Z,38.20
2022-08-03T16:15:04.338Z,37.90
2022-08-03T16:17:32.957Z,37.90
2022-08-03T16:20:01.072Z,38.00
2022-08-03T16:22:32.370Z,37.80
2022-08-03T16:25:02.254Z,37.60
2022-08-03T16:27:56.497Z,37.60
2022-08-03T16:30:20.525Z,37.50
2022-08-03T16:32:49.952Z,37.30
2022-08-03T16:35:19.560Z,37.10
2022-08-03T16:37:56.347Z,37.20
2022-08-03T16:40:29.799Z,37.00
2022-08-03T16:42:59.551Z,37.10
2022-08-03T16:45:27.677Z,37.40
2022-08-03T16:48:05.085Z,37.40
2022-08-03T16:50:35.555Z,37.50
2022-08-03T16:53:09.277Z,37.10
2022-08-03T16:55:49.085Z,37.10
2022-08-03T16:58:34.253Z,37.00
2022-08-03T17:01:22.230Z,36.90
2022-08-03T17:04:02.986Z,36.80
2022-08-03T17:06:37.177Z,36.80
2022-08-03T17:09:09.830Z,36.80
2022-08-03T17:11:47.248Z,36.90
2022-08-03T17:14:22.529Z,37.00
2022-08-03T17:16:54.666Z,37.00
2022-08-03T17:19:24.981Z,36.90
2022-08-03T17:22:04.227Z,36.90
2022-08-03T17:24:41.447Z,36.70
2022-08-03T17:28:41.816Z,36.80
2022-08-03T17:30:14.965Z,37.00
2022-08-03T17:32:53.481Z,36.80
2022-08-03T17:35:35.535Z,36.70
2022-08-03T17:38:11.979Z,36.60
2022-08-03T17:40:49.977Z,36.70
2022-08-03T17:46:12.152Z,37.00
2022-08-03T17:48:41.987Z,37.10
2022-08-03T17:51:20.986Z,37.00
2022-08-03T17:54:05.685Z,37.00
2022-08-03T17:56:56.799Z,37.00
2022-08-03T17:59:50.766Z,36.90
2022-08-03T18:03:00.950Z,36.80
2022-08-03T18:06:10.468Z,36.90
2022-08-03T18:08:29.954Z,37.10
2022-08-03T18:11:14.349Z,36.90
2022-08-03T18:13:57.964Z,36.70
2022-08-03T18:16:47.621Z,36.40
2022-08-03T18:19:18.640Z,35.50
2022-08-03T18:22:03.342Z,34.70
2022-08-03T18:24:32.912Z,34.00
2022-08-03T18:27:04.414Z,33.50
2022-08-03T18:29:37.161Z,33.10
2022-08-03T18:32:27.828Z,32.80
2022-08-03T18:35:13.659Z,32.30
2022-08-03T18:37:52.197Z,31.90
2022-08-03T18:40:26.406Z,31.40
2022-08-03T18:42:59.669Z,31.00
2022-08-03T18:45:57.475Z,30.60
2022-08-03T18:48:36.733Z,30.30
2022-08-03T18:51:11.711Z,29.90
2022-08-03T18:54:11.965Z,29.50
2022-08-03T18:57:02.948Z,29.20
2022-08-03T18:59:41.317Z,28.90
2022-08-03T19:02:29.647Z,28.60
2022-08-03T19:05:07.699Z,28.20
2022-08-03T19:07:40.468Z,27.90
2022-08-03T19:10:15.797Z,27.60
2022-08-03T19:12:52.969Z,27.30
2022-08-03T19:15:36.339Z,27.10
2022-08-03T19:18:10.771Z,26.70
2022-08-03T19:20:39.457Z,26.50
2022-08-03T19:23:13.088Z,26.40
2022-08-03T19:25:42.915Z,26.20
2022-08-03T19:28:14.061Z,26.10
2022-08-03T19:30:53.388Z,26.00
2022-08-03T19:33:23.266Z,25.90
2022-08-03T19:35:56.953Z,25.80
2022-08-03T19:38:30.572Z,25.70
2022-08-03T19:41:05.964Z,25.40
2022-08-03T19:43:49.371Z,25.20
2022-08-03T19:46:30.483Z,25.10
2022-08-03T19:49:04.692Z,24.90
2022-08-03T19:52:01.690Z,24.90
2022-08-03T19:54:39.566Z,24.60
2022-08-03T19:57:25.405Z,24.40
2022-08-03T19:59:56.879Z,24.00
2022-08-03T20:02:29.753Z,23.80
2022-08-03T20:04:59.811Z,23.70
2022-08-03T20:07:35.461Z,23.60
2022-08-03T20:10:09.881Z,23.50
2022-08-03T20:12:40.440Z,23.50
2022-08-03T20:15:10.561Z,23.50
2022-08-03T20:17:56.837Z,23.40
2022-08-03T20:20:31.148Z,23.30
2022-08-03T20:23:01.772Z,23.20
2022-08-03T20:28:30.158Z,23.00
2022-08-03T20:30:59.994Z,22.90
2022-08-03T20:33:46.266Z,22.70
2022-08-03T20:36:18.094Z,22.50
2022-08-03T20:38:48.046Z,22.50
2022-08-03T20:41:18.411Z,22.50
2022-08-03T20:43:49.196Z,22.30
2022-08-03T20:46:34.309Z,22.30
2022-08-03T20:49:06.695Z,22.40
2022-08-03T20:51:49.512Z,22.30
2022-08-03T20:54:22.808Z,22.20
2022-08-03T20:57:04.370Z,22.00
2022-08-03T20:59:50.641Z,21.80
2022-08-03T21:02:29.531Z,21.60
2022-08-03T21:05:03.403Z,21.40
2022-08-03T21:08:05.715Z,21.30
2022-08-03T21:10:32.612Z,21.20
2022-08-03T21:12:54.884Z,36.80
2022-08-03T21:13:06.786Z,23.10
2022-08-03T21:13:17.074Z,21.20
2022-08-03T21:16:06.836Z,21.10
2022-08-03T21:18:44.905Z,21.10
2022-08-03T21:21:21.973Z,21.00
2022-08-03T21:23:53.275Z,21.00
2022-08-03T21:26:24.558Z,20.90
2022-08-03T21:28:58.234Z,20.90
2022-08-03T21:31:27.826Z,21.00
2022-08-03T21:33:59.655Z,20.90
2022-08-03T21:36:30.561Z,20.90
2022-08-03T21:39:00.373Z,20.80
2022-08-03T21:41:31.423Z,20.80
2022-08-03T21:44:03.067Z,20.50
2022-08-03T21:46:36.251Z,20.50
2022-08-03T21:50:04.513Z,20.30
2022-08-03T21:52:00.985Z,20.20
2022-08-03T21:54:37.758Z,20.20
2022-08-03T21:57:13.001Z,20.10
2022-08-03T21:59:53.378Z,20.00
2022-08-03T22:02:27.247Z,20.00
2022-08-03T22:04:57.385Z,20.10
2022-08-03T22:07:29.203Z,19.90
2022-08-03T22:09:59.316Z,19.90
2022-08-03T22:12:32.113Z,19.80
2022-08-03T22:15:05.110Z,19.70
2022-08-03T22:17:55.487Z,19.60
2022-08-03T22:20:25.647Z,19.60
2022-08-03T22:23:00.903Z,19.60
2022-08-03T22:25:32.514Z,19.60
2022-08-03T22:28:05.888Z,19.60
2022-08-03T22:30:37.496Z,19.50
2022-08-03T22:33:11.705Z,19.50
2022-08-03T22:35:47.704Z,19.40
2022-08-03T22:38:18.496Z,19.30
2022-08-03T22:40:51.847Z,19.30
2022-08-03T22:43:24.697Z,19.20
2022-08-03T22:46:09.363Z,19.20
2022-08-03T22:48:41.946Z,19.20
2022-08-03T22:51:11.923Z,19.20
2022-08-03T22:53:41.626Z,19.30
2022-08-03T22:56:12.481Z,19.20
2022-08-03T22:58:40.800Z,19.10
2022-08-03T23:01:12.886Z,18.90
2022-08-03T23:03:58.772Z,18.90
2022-08-03T23:06:36.602Z,18.70
2022-08-03T23:09:09.184Z,18.70
2022-08-03T23:11:42.906Z,18.60
2022-08-03T23:14:17.286Z,18.50
2022-08-03T23:16:49.810Z,18.60
2022-08-03T23:19:25.922Z,18.60
2022-08-03T23:22:00.077Z,18.60
2022-08-03T23:24:30.381Z,18.60
2022-08-03T23:26:59.461Z,18.60
2022-08-03T23:29:31.627Z,18.60
2022-08-03T23:32:04.232Z,18.60
2022-08-03T23:34:51.839Z,18.60
2022-08-03T23:37:21.254Z,18.50
2022-08-03T23:39:59.719Z,18.50
2022-08-03T23:42:30.466Z,18.40
2022-08-03T23:45:05.461Z,18.40
2022-08-03T23:47:46.302Z,18.40
2022-08-03T23:50:26.532Z,18.30
2022-08-03T23:53:13.110Z,18.30
2022-08-03T23:55:57.787Z,18.20
2022-08-03T23:58:54.252Z,18.10
